KGRI

Central Nebraska Regional Airport

Grand Island, Nebraska, USA
METAR KGRI 210702Z AUTO 00000KT 1/4SM R35/1600VP6000FT FG VV006 09/09 A3009 RMK AO2 T00890089
Observed Flight Rules
May-21 @ 07:02 UTC (17 minutes ago) Instrument Flight Rules
Visibility Clouds Conditions
1/4 miles
  • Vertical visibility at 600' AGL
  • Fog
Temperatures Readings
Current 9°C / 48°F
Dewpoint 9°C / 48°F
Humidity 100%
Altimeter 30.09" Hg
Pressure 1019 hPa
Elevation 561
METAR KGRI 210702Z AUTO 00000KT 1/4SM R35/1600VP6000FT FG VV006 09/09 A3009 RMK AO2 T00890089
Observed Flight Rules
May-21 @ 07:02 UTC
(17 minutes ago)
LIFR
Clouds
  • Vertical visibility at 600' AGL
Conditions
  • Fog
Temperature Dewpoint
9°C / 48°F 9°C / 48°F
Humidity Altimeter Pressure
100% 30.09" Hg 1019 hPa